createdAt,value
2019-03-20T00:00:41.798Z,88.42
2019-03-20T00:01:43.931Z,88.73
2019-03-20T00:02:41.736Z,88.66
2019-03-20T00:03:41.678Z,88.76
2019-03-20T00:04:49.568Z,89.18
2019-03-20T00:05:42.651Z,89.08
2019-03-20T00:06:41.738Z,89.08
2019-03-20T00:07:41.638Z,89.70
2019-03-20T00:08:41.648Z,89.91
2019-03-20T00:09:41.620Z,90.19
2019-03-20T00:10:41.661Z,90.22
2019-03-20T00:11:41.569Z,90.12
2019-03-20T00:12:41.715Z,90.44
2019-03-20T00:13:41.547Z,90.64
2019-03-20T00:14:41.583Z,90.54
2019-03-20T00:15:41.519Z,89.81
2019-03-20T00:16:41.593Z,89.81
2019-03-20T00:17:41.539Z,90.22
2019-03-20T00:18:41.609Z,90.12
2019-03-20T00:19:41.473Z,90.22
2019-03-20T00:20:41.534Z,89.91
2019-03-20T00:21:41.461Z,90.12
2019-03-20T00:22:43.218Z,90.26
2019-03-20T00:23:41.471Z,89.91
2019-03-20T00:24:41.450Z,89.85
2019-03-20T00:25:41.413Z,90.37
2019-03-20T00:26:41.462Z,90.26
2019-03-20T00:27:41.437Z,90.68
2019-03-20T00:28:41.514Z,91.20
2019-03-20T00:29:41.370Z,91.37
2019-03-20T00:30:41.392Z,91.62
2019-03-20T00:31:41.355Z,91.00
2019-03-20T00:32:41.406Z,90.89
2019-03-20T00:33:41.352Z,90.79
2019-03-20T00:34:41.417Z,91.00
2019-03-20T00:35:41.322Z,91.00
2019-03-20T00:36:41.350Z,91.00
2019-03-20T00:37:41.281Z,91.00
2019-03-20T00:38:41.375Z,90.89
2019-03-20T00:39:41.254Z,91.00
2019-03-20T00:40:41.359Z,90.58
2019-03-20T00:41:41.236Z,90.37
2019-03-20T00:42:41.271Z,90.58
2019-03-20T00:43:41.251Z,90.47
2019-03-20T00:44:41.281Z,91.20
2019-03-20T00:45:41.188Z,91.52
2019-03-20T00:46:41.303Z,91.20
2019-03-20T00:47:41.171Z,91.83
2019-03-20T00:48:41.237Z,92.25
2019-03-20T00:49:41.192Z,91.52
2019-03-20T00:50:41.221Z,91.52
2019-03-20T00:51:41.124Z,91.72
2019-03-20T00:52:41.229Z,91.20
2019-03-20T00:53:41.106Z,91.31
2019-03-20T00:54:41.171Z,91.72
2019-03-20T00:55:41.078Z,91.93
2019-03-20T00:56:41.161Z,91.87
2019-03-20T00:57:41.078Z,91.04
2019-03-20T00:58:41.173Z,91.66
2019-03-20T00:59:41.095Z,90.93
2019-03-20T01:00:41.117Z,91.14
2019-03-20T01:01:41.014Z,91.14
2019-03-20T01:02:41.092Z,91.25
2019-03-20T01:03:40.995Z,91.25
2019-03-20T01:04:41.142Z,91.46
2019-03-20T01:05:40.973Z,91.77
2019-03-20T01:06:41.038Z,92.18
2019-03-20T01:07:40.951Z,91.66
2019-03-20T01:08:41.035Z,92.18
2019-03-20T01:09:40.932Z,91.77
2019-03-20T01:10:40.985Z,91.60
2019-03-20T01:11:40.903Z,91.50
2019-03-20T01:12:40.966Z,91.18
2019-03-20T01:13:40.921Z,91.71
2019-03-20T01:14:40.976Z,91.81
2019-03-20T01:15:40.890Z,92.02
2019-03-20T01:16:40.888Z,92.02
2019-03-20T01:17:40.849Z,91.39
2019-03-20T01:18:40.898Z,91.50
2019-03-20T01:19:40.820Z,91.39
2019-03-20T01:20:40.975Z,91.81
2019-03-20T01:21:40.798Z,91.81
2019-03-20T01:22:40.822Z,91.39
2019-03-20T01:23:40.781Z,91.71
2019-03-20T01:24:40.844Z,92.22
2019-03-20T01:25:40.805Z,92.22
2019-03-20T01:26:40.915Z,92.79
2019-03-20T01:27:40.740Z,92.85
2019-03-20T01:28:40.774Z,92.58
2019-03-20T01:29:40.731Z,92.65
2019-03-20T01:30:40.809Z,93.41
2019-03-20T01:31:40.753Z,92.85
2019-03-20T01:32:40.797Z,92.90
2019-03-20T01:33:40.696Z,93.31
2019-03-20T01:34:40.731Z,93.37
2019-03-20T01:35:40.652Z,92.90
2019-03-20T01:36:40.770Z,93.21
2019-03-20T01:37:40.639Z,93.41
2019-03-20T01:38:40.738Z,93.10
2019-03-20T01:39:40.614Z,93.63
2019-03-20T01:40:40.999Z,93.52
2019-03-20T01:41:40.619Z,93.84
2019-03-20T01:42:40.671Z,93.84
2019-03-20T01:43:40.579Z,94.04
2019-03-20T01:44:40.674Z,93.73
2019-03-20T01:45:40.586Z,93.73
2019-03-20T01:46:40.627Z,93.73
2019-03-20T01:47:40.571Z,93.31
2019-03-20T01:48:40.604Z,94.15
2019-03-20T01:49:40.494Z,93.84
2019-03-20T01:50:40.613Z,93.84
2019-03-20T01:51:40.494Z,93.57
2019-03-20T01:52:40.590Z,93.52
2019-03-20T01:53:40.471Z,93.52
2019-03-20T01:54:40.547Z,93.63
2019-03-20T01:55:40.429Z,94.25
2019-03-20T01:56:40.457Z,93.98
2019-03-20T01:57:40.454Z,93.98
2019-03-20T01:58:40.464Z,93.77
2019-03-20T01:59:40.389Z,93.88
2019-03-20T02:00:40.479Z,93.77
2019-03-20T02:01:40.406Z,93.77
2019-03-20T02:02:40.393Z,93.88
2019-03-20T02:03:40.974Z,93.77
2019-03-20T02:04:40.409Z,94.09
2019-03-20T02:05:40.326Z,94.50
2019-03-20T02:06:40.447Z,94.61
2019-03-20T02:07:40.341Z,95.03
2019-03-20T02:08:40.329Z,94.61
2019-03-20T02:09:40.291Z,94.34
2019-03-20T02:10:40.374Z,94.40
2019-03-20T02:11:40.281Z,94.65
2019-03-20T02:12:40.390Z,94.65
2019-03-20T02:13:40.266Z,94.61
2019-03-20T02:14:40.302Z,94.19
2019-03-20T02:15:40.253Z,94.23
2019-03-20T02:16:40.291Z,94.13
2019-03-20T02:17:40.223Z,94.86
2019-03-20T02:18:40.326Z,94.02
2019-03-20T02:19:40.214Z,93.82
2019-03-20T02:20:40.212Z,94.23
2019-03-20T02:21:40.176Z,93.92
2019-03-20T02:22:40.218Z,94.02
2019-03-20T02:23:40.177Z,94.44
2019-03-20T02:24:40.278Z,94.55
2019-03-20T02:25:40.123Z,94.34
2019-03-20T02:26:40.157Z,94.44
2019-03-20T02:27:40.154Z,94.44
2019-03-20T02:28:40.184Z,94.65
2019-03-20T02:29:40.075Z,95.01
2019-03-20T02:30:40.177Z,93.92
2019-03-20T02:31:40.050Z,94.13
2019-03-20T02:32:40.231Z,94.07
2019-03-20T02:33:40.053Z,94.55
2019-03-20T02:34:40.114Z,95.01
2019-03-20T02:35:51.284Z,95.01
2019-03-20T02:36:41.026Z,95.01
2019-03-20T02:37:40.051Z,94.70
2019-03-20T02:38:40.029Z,94.70
2019-03-20T02:39:40.069Z,94.90
2019-03-20T02:40:39.949Z,94.90
2019-03-20T02:41:40.075Z,94.80
2019-03-20T02:42:39.938Z,95.01
2019-03-20T02:43:40.009Z,94.80
2019-03-20T02:44:39.937Z,94.80
2019-03-20T02:45:40.005Z,94.59
2019-03-20T02:46:39.914Z,94.70
2019-03-20T02:47:40.010Z,94.59
2019-03-20T02:48:39.897Z,94.90
2019-03-20T02:49:39.907Z,94.59
2019-03-20T02:50:39.862Z,94.80
2019-03-20T02:51:39.927Z,94.74
2019-03-20T02:52:39.824Z,94.95
2019-03-20T02:53:39.981Z,95.01
2019-03-20T02:54:39.823Z,95.01
2019-03-20T02:55:39.891Z,94.95
2019-03-20T02:56:39.774Z,95.15
2019-03-20T02:57:39.867Z,94.59
2019-03-20T02:58:39.782Z,94.90
2019-03-20T02:59:39.878Z,95.15
2019-03-20T03:00:39.737Z,95.05
2019-03-20T03:01:39.801Z,95.01
2019-03-20T03:02:39.737Z,96.10
2019-03-20T03:03:39.841Z,95.32
2019-03-20T03:04:39.731Z,95.37
2019-03-20T03:05:39.836Z,95.57
2019-03-20T03:06:39.677Z,95.37
2019-03-20T03:07:39.729Z,95.37
2019-03-20T03:08:39.673Z,94.74
2019-03-20T03:09:39.776Z,95.05
2019-03-20T03:10:39.732Z,94.84
2019-03-20T03:11:39.646Z,94.95
2019-03-20T03:12:39.624Z,95.26
2019-03-20T03:13:39.667Z,94.74
2019-03-20T03:14:39.617Z,94.95
2019-03-20T03:15:39.700Z,95.05
2019-03-20T03:16:39.568Z,95.26
2019-03-20T03:17:39.578Z,95.47
2019-03-20T03:18:39.548Z,95.37
2019-03-20T03:19:39.595Z,96.20
2019-03-20T03:20:39.555Z,96.41
2019-03-20T03:21:39.650Z,96.10
2019-03-20T03:22:39.505Z,96.10
2019-03-20T03:23:39.530Z,96.20
2019-03-20T03:24:39.531Z,96.31
2019-03-20T03:25:39.580Z,96.10
2019-03-20T03:26:39.495Z,96.10
2019-03-20T03:27:39.558Z,95.89
2019-03-20T03:28:39.454Z,95.78
2019-03-20T03:29:39.467Z,95.89
2019-03-20T03:30:39.451Z,96.20
2019-03-20T03:31:39.697Z,95.68
2019-03-20T03:32:39.418Z,95.47
2019-03-20T03:33:39.529Z,96.41
2019-03-20T03:34:39.379Z,96.51
2019-03-20T03:35:39.433Z,96.20
2019-03-20T03:36:39.408Z,96.31
2019-03-20T03:37:39.457Z,97.04
2019-03-20T03:38:39.345Z,97.25
2019-03-20T03:39:39.437Z,97.00
2019-03-20T03:40:39.338Z,97.20
2019-03-20T03:41:39.345Z,96.62
2019-03-20T03:42:39.292Z,97.00
2019-03-20T03:43:39.387Z,97.25
2019-03-20T03:44:39.267Z,97.35
2019-03-20T03:45:39.412Z,96.68
2019-03-20T03:46:39.261Z,96.78
2019-03-20T03:47:39.341Z,97.41
2019-03-20T03:48:39.228Z,97.31
2019-03-20T03:49:39.332Z,97.68
2019-03-20T03:50:39.246Z,98.21
2019-03-20T03:51:39.349Z,98.21
2019-03-20T03:52:39.254Z,97.95
2019-03-20T03:53:39.221Z,97.85
2019-03-20T03:54:39.163Z,98.16
2019-03-20T03:55:39.269Z,98.16
2019-03-20T03:56:39.150Z,97.32
2019-03-20T03:57:39.252Z,97.11
2019-03-20T03:58:39.160Z,97.11
2019-03-20T03:59:39.160Z,96.86
2019-03-20T04:00:39.129Z,96.86
2019-03-20T04:01:39.348Z,96.97
2019-03-20T04:02:39.103Z,97.07
2019-03-20T04:03:39.202Z,96.97
2019-03-20T04:04:39.053Z,96.23
2019-03-20T04:05:39.129Z,95.92
2019-03-20T04:06:39.059Z,95.98
2019-03-20T04:07:39.124Z,95.56
2019-03-20T04:08:39.022Z,95.82
2019-03-20T04:09:39.031Z,95.88
2019-03-20T04:10:39.008Z,95.88
2019-03-20T04:11:39.080Z,95.56
2019-03-20T04:12:39.017Z,95.88
2019-03-20T04:13:39.103Z,96.09
2019-03-20T04:14:38.952Z,94.73
2019-03-20T04:15:38.989Z,94.94
2019-03-20T04:16:38.956Z,94.94
2019-03-20T04:17:39.023Z,94.52
2019-03-20T04:18:38.904Z,94.63
2019-03-20T04:19:39.010Z,94.52
2019-03-20T04:20:38.915Z,94.63
2019-03-20T04:21:38.901Z,94.42
2019-03-20T04:22:38.970Z,94.52
2019-03-20T04:23:38.918Z,94.21
2019-03-20T04:24:38.839Z,94.52
2019-03-20T04:25:38.930Z,94.31
2019-03-20T04:26:38.839Z,94.52
2019-03-20T04:27:38.912Z,94.31
2019-03-20T04:28:38.978Z,94.42
2019-03-20T04:29:38.867Z,94.73
2019-03-20T04:30:38.784Z,94.21
2019-03-20T04:31:38.929Z,94.42
2019-03-20T04:32:38.768Z,94.52
2019-03-20T04:33:38.776Z,94.00
2019-03-20T04:34:38.734Z,94.21
2019-03-20T04:35:38.793Z,94.52
2019-03-20T04:36:47.583Z,94.10
2019-03-20T04:37:39.716Z,94.10
2019-03-20T04:38:38.783Z,93.96
2019-03-20T04:39:38.678Z,93.96
2019-03-20T04:40:38.738Z,93.65
2019-03-20T04:41:38.682Z,93.65
2019-03-20T04:42:38.772Z,93.44
2019-03-20T04:43:38.640Z,93.44
2019-03-20T04:44:38.647Z,92.81
2019-03-20T04:45:38.630Z,93.33
2019-03-20T04:46:38.664Z,93.33
2019-03-20T04:47:38.645Z,92.71
2019-03-20T04:48:38.711Z,92.50
2019-03-20T04:49:38.567Z,93.02
2019-03-20T04:50:38.603Z,93.33
2019-03-20T04:51:38.548Z,93.23
2019-03-20T04:52:38.632Z,93.02
2019-03-20T04:53:38.542Z,93.40
2019-03-20T04:54:38.622Z,93.33
2019-03-20T04:55:38.509Z,93.40
2019-03-20T04:56:38.524Z,92.46
2019-03-20T04:57:38.502Z,92.66
2019-03-20T04:58:38.577Z,92.87
2019-03-20T04:59:38.526Z,92.52
2019-03-20T05:00:38.556Z,92.83
2019-03-20T05:01:38.443Z,91.27
2019-03-20T05:02:38.473Z,91.47
2019-03-20T05:03:38.461Z,90.95
2019-03-20T05:04:38.486Z,90.85
2019-03-20T05:05:38.396Z,90.39
2019-03-20T05:06:38.498Z,90.22
2019-03-20T05:07:38.381Z,90.50
2019-03-20T05:08:38.445Z,90.39
2019-03-20T05:09:38.357Z,89.87
2019-03-20T05:10:38.430Z,89.76
2019-03-20T05:11:38.333Z,89.66
2019-03-20T05:12:38.448Z,89.76
2019-03-20T05:13:38.348Z,89.66
2019-03-20T05:14:38.349Z,90.01
2019-03-20T05:15:38.338Z,89.91
2019-03-20T05:16:38.438Z,89.98
2019-03-20T05:17:38.272Z,89.81
2019-03-20T05:18:38.377Z,90.44
2019-03-20T05:19:38.262Z,90.19
2019-03-20T05:20:38.323Z,89.87
2019-03-20T05:21:38.232Z,89.76
2019-03-20T05:22:38.302Z,89.45
2019-03-20T05:23:38.206Z,89.87
2019-03-20T05:24:38.452Z,89.04
2019-03-20T05:25:38.198Z,88.52
2019-03-20T05:26:38.235Z,89.04
2019-03-20T05:27:38.169Z,88.83
2019-03-20T05:28:38.250Z,89.08
2019-03-20T05:29:38.140Z,90.01
2019-03-20T05:30:38.294Z,89.81
2019-03-20T05:31:38.127Z,90.85
2019-03-20T05:32:38.176Z,90.64
2019-03-20T05:33:38.111Z,90.33
2019-03-20T05:34:38.221Z,90.44
2019-03-20T05:35:38.082Z,90.01
2019-03-20T05:36:38.194Z,90.50
2019-03-20T05:37:38.060Z,89.91
2019-03-20T05:38:38.115Z,90.22
2019-03-20T05:39:38.063Z,89.91
2019-03-20T05:40:38.145Z,90.54
2019-03-20T05:41:38.013Z,90.44
2019-03-20T05:42:38.134Z,90.44
2019-03-20T05:43:37.999Z,90.22
2019-03-20T05:44:38.066Z,90.81
2019-03-20T05:45:38.031Z,90.54
2019-03-20T05:46:38.062Z,90.22
2019-03-20T05:47:37.947Z,90.22
2019-03-20T05:48:38.017Z,90.12
2019-03-20T05:49:37.929Z,90.54
2019-03-20T05:50:38.017Z,89.98
2019-03-20T05:51:37.907Z,89.87
2019-03-20T05:52:38.002Z,89.56
2019-03-20T05:53:37.895Z,89.45
2019-03-20T05:54:37.920Z,89.87
2019-03-20T05:55:37.886Z,89.87
2019-03-20T05:56:37.959Z,89.76
2019-03-20T05:57:37.845Z,89.98
2019-03-20T05:58:37.934Z,88.89
2019-03-20T05:59:37.819Z,89.14
2019-03-20T06:00:37.876Z,88.93
2019-03-20T06:01:37.812Z,89.10
2019-03-20T06:02:37.867Z,89.10
2019-03-20T06:03:37.777Z,89.00
2019-03-20T06:04:37.886Z,88.89
2019-03-20T06:05:37.784Z,89.00
2019-03-20T06:06:37.794Z,88.89
2019-03-20T06:07:37.758Z,88.75
2019-03-20T06:08:37.828Z,87.81
2019-03-20T06:09:37.724Z,87.85
2019-03-20T06:10:38.775Z,88.12
2019-03-20T06:11:37.694Z,87.92
2019-03-20T06:12:37.732Z,87.71
2019-03-20T06:13:37.780Z,87.71
2019-03-20T06:14:37.766Z,87.81
2019-03-20T06:15:37.736Z,87.81
2019-03-20T06:16:38.167Z,87.92
2019-03-20T06:17:37.620Z,87.81
2019-03-20T06:18:37.671Z,87.92
2019-03-20T06:19:37.601Z,87.71
2019-03-20T06:20:37.708Z,88.23
2019-03-20T06:21:37.605Z,88.02
2019-03-20T06:22:37.597Z,87.92
2019-03-20T06:23:37.558Z,88.09
2019-03-20T06:24:37.627Z,87.71
2019-03-20T06:25:37.532Z,87.71
2019-03-20T06:26:37.657Z,87.56
2019-03-20T06:27:37.515Z,87.88
2019-03-20T06:28:37.534Z,87.88
2019-03-20T06:29:37.493Z,87.84
2019-03-20T06:30:37.547Z,87.84
2019-03-20T06:31:37.490Z,87.84
2019-03-20T06:32:37.633Z,87.90
2019-03-20T06:33:37.451Z,87.42
2019-03-20T06:34:37.483Z,87.69
2019-03-20T06:35:37.431Z,86.55
2019-03-20T06:36:37.512Z,86.44
2019-03-20T06:37:37.436Z,87.59
2019-03-20T06:38:37.517Z,86.51
2019-03-20T06:39:37.385Z,85.74
2019-03-20T06:40:37.406Z,85.95
2019-03-20T06:41:37.382Z,85.60
2019-03-20T06:42:37.430Z,85.35
2019-03-20T06:43:37.353Z,85.56
2019-03-20T06:44:37.438Z,85.77
2019-03-20T06:45:37.334Z,85.77
2019-03-20T06:46:37.383Z,84.52
2019-03-20T06:47:37.293Z,84.69
2019-03-20T06:48:37.369Z,85.11
2019-03-20T06:49:37.275Z,84.69
2019-03-20T06:50:37.377Z,83.65
2019-03-20T06:51:37.250Z,83.86
2019-03-20T06:52:37.343Z,83.86
2019-03-20T06:53:37.224Z,83.03
2019-03-20T06:54:37.303Z,83.03
2019-03-20T06:55:37.205Z,82.27
2019-03-20T06:56:37.313Z,82.65
2019-03-20T06:57:37.208Z,82.65
2019-03-20T06:58:37.245Z,82.13
2019-03-20T06:59:37.157Z,82.13
2019-03-20T07:00:37.249Z,82.34
2019-03-20T07:01:37.137Z,81.51
2019-03-20T07:02:37.184Z,81.40
2019-03-20T07:03:37.115Z,80.95
2019-03-20T07:04:37.114Z,80.74
2019-03-20T07:05:37.102Z,80.43
2019-03-20T07:06:37.084Z,80.22
2019-03-20T07:07:44.137Z,80.33
2019-03-20T07:08:38.064Z,80.54
2019-03-20T07:09:37.049Z,80.02
2019-03-20T07:10:37.039Z,80.60
2019-03-20T07:11:37.024Z,80.40
2019-03-20T07:12:37.058Z,80.91
2019-03-20T07:13:37.089Z,81.64
2019-03-20T07:14:37.001Z,81.39
2019-03-20T07:15:36.983Z,81.09
2019-03-20T07:16:36.978Z,80.26
2019-03-20T07:17:36.963Z,80.88
2019-03-20T07:18:37.049Z,80.57
2019-03-20T07:19:36.949Z,79.22
2019-03-20T07:20:36.960Z,79.43
2019-03-20T07:21:36.919Z,78.67
2019-03-20T07:22:36.907Z,78.91
2019-03-20T07:23:36.931Z,78.15
2019-03-20T07:24:36.918Z,77.94
2019-03-20T07:25:36.893Z,78.32
2019-03-20T07:26:36.879Z,78.01
2019-03-20T07:27:36.851Z,78.11
2019-03-20T07:28:36.889Z,78.11
2019-03-20T07:29:36.879Z,78.18
2019-03-20T07:30:36.834Z,78.28
2019-03-20T07:31:36.846Z,77.98
2019-03-20T07:32:36.832Z,76.94
2019-03-20T07:33:36.814Z,77.36
2019-03-20T07:34:36.783Z,77.36
2019-03-20T07:35:36.769Z,77.63
2019-03-20T07:36:36.765Z,76.81
2019-03-20T07:37:36.740Z,77.18
2019-03-20T07:38:36.776Z,77.28
2019-03-20T07:39:36.724Z,75.22
2019-03-20T07:40:36.710Z,75.60
2019-03-20T07:41:36.736Z,75.49
2019-03-20T07:42:36.714Z,74.95
2019-03-20T07:43:36.730Z,74.63
2019-03-20T07:44:36.716Z,73.81
2019-03-20T07:45:36.685Z,74.12
2019-03-20T07:46:36.648Z,73.98
2019-03-20T07:47:36.631Z,73.47
2019-03-20T07:48:36.648Z,73.78
2019-03-20T07:49:36.673Z,72.75
2019-03-20T07:50:36.606Z,73.16
2019-03-20T07:51:36.595Z,73.43
2019-03-20T07:52:36.595Z,73.47
2019-03-20T07:53:36.589Z,72.30
2019-03-20T07:54:36.603Z,72.44
2019-03-20T07:55:36.544Z,73.57
2019-03-20T07:56:36.608Z,72.71
2019-03-20T07:57:36.541Z,72.09
2019-03-20T07:58:36.520Z,72.20
2019-03-20T07:59:36.522Z,71.99
2019-03-20T08:00:36.527Z,72.30
2019-03-20T08:01:36.518Z,72.30
2019-03-20T08:02:36.485Z,72.20
2019-03-20T08:03:36.458Z,72.61
2019-03-20T08:04:36.510Z,72.41
2019-03-20T08:05:36.492Z,72.09
2019-03-20T08:06:36.454Z,71.48
2019-03-20T08:07:36.417Z,72.30
2019-03-20T08:08:36.425Z,71.48
2019-03-20T08:09:36.486Z,70.31
2019-03-20T08:10:36.431Z,69.76
2019-03-20T08:11:36.407Z,70.18
2019-03-20T08:12:36.360Z,68.94
2019-03-20T08:13:36.347Z,68.50
2019-03-20T08:14:36.393Z,69.12
2019-03-20T08:15:36.360Z,69.53
2019-03-20T08:16:36.346Z,68.40
2019-03-20T08:17:36.307Z,68.70
2019-03-20T08:18:36.309Z,69.63
2019-03-20T08:19:36.295Z,69.01
2019-03-20T08:20:36.307Z,69.49
2019-03-20T08:21:36.287Z,69.32
2019-03-20T08:22:36.282Z,68.91
2019-03-20T08:23:36.237Z,67.98
2019-03-20T08:24:36.228Z,69.12
2019-03-20T08:25:36.251Z,68.70
2019-03-20T08:26:36.243Z,68.91
2019-03-20T08:27:36.230Z,69.01
2019-03-20T08:28:36.186Z,68.77
2019-03-20T08:29:36.180Z,67.95
2019-03-20T08:30:36.232Z,67.51
2019-03-20T08:31:36.150Z,69.12
2019-03-20T08:32:36.257Z,67.48
2019-03-20T08:33:36.120Z,66.73
2019-03-20T08:34:36.137Z,67.11
2019-03-20T08:35:36.156Z,66.60
2019-03-20T08:36:36.137Z,65.16
2019-03-20T08:37:36.075Z,63.90
2019-03-20T08:38:36.085Z,65.03
2019-03-20T08:39:36.078Z,64.51
2019-03-20T08:40:36.072Z,64.48
2019-03-20T08:41:36.061Z,65.23
2019-03-20T08:42:36.025Z,64.48
2019-03-20T08:43:36.016Z,63.66
2019-03-20T08:44:36.009Z,63.46
2019-03-20T08:45:36.053Z,63.87
2019-03-20T08:46:37.011Z,63.35
2019-03-20T08:47:35.965Z,64.14
2019-03-20T08:48:35.967Z,64.45
2019-03-20T08:49:35.953Z,63.12
2019-03-20T08:50:35.955Z,62.92
2019-03-20T08:51:35.966Z,62.81
2019-03-20T08:52:35.963Z,62.71
2019-03-20T08:53:35.909Z,63.84
2019-03-20T08:54:35.899Z,63.43
2019-03-20T08:55:35.910Z,63.94
2019-03-20T08:56:35.917Z,63.84
2019-03-20T08:57:35.873Z,64.04
2019-03-20T08:58:35.846Z,64.86
2019-03-20T08:59:35.838Z,65.17
2019-03-20T09:00:35.849Z,64.35
2019-03-20T09:01:35.825Z,63.81
2019-03-20T09:02:35.855Z,64.22
2019-03-20T09:03:35.792Z,63.88
2019-03-20T09:04:35.917Z,62.62
2019-03-20T09:05:35.773Z,62.39
2019-03-20T09:06:35.767Z,62.49
2019-03-20T09:07:46.647Z,62.70
2019-03-20T09:08:36.738Z,61.36
2019-03-20T09:09:35.730Z,62.46
2019-03-20T09:10:35.714Z,62.18
2019-03-20T09:11:35.709Z,61.65
2019-03-20T09:12:35.716Z,61.95
2019-03-20T09:13:35.697Z,63.28
2019-03-20T09:14:35.680Z,61.85
2019-03-20T09:15:35.665Z,62.13
2019-03-20T09:16:35.648Z,61.31
2019-03-20T09:17:35.671Z,61.69
2019-03-20T09:18:35.641Z,60.36
2019-03-20T09:19:35.619Z,61.38
2019-03-20T09:20:35.623Z,59.95
2019-03-20T09:21:35.609Z,60.77
2019-03-20T09:22:35.592Z,60.77
2019-03-20T09:23:35.603Z,60.97
2019-03-20T09:24:35.571Z,60.16
2019-03-20T09:25:35.557Z,59.95
2019-03-20T09:26:35.536Z,60.97
2019-03-20T09:27:35.528Z,60.36
2019-03-20T09:28:35.548Z,61.08
2019-03-20T09:29:36.467Z,60.57
2019-03-20T09:30:35.497Z,60.90
2019-03-20T09:31:35.515Z,60.80
2019-03-20T09:32:35.477Z,60.60
2019-03-20T09:33:36.534Z,60.49
2019-03-20T09:34:35.466Z,60.28
2019-03-20T09:35:35.458Z,61.00
2019-03-20T09:36:42.980Z,60.90
2019-03-20T09:37:36.413Z,60.90
2019-03-20T09:38:43.297Z,62.20
2019-03-20T09:39:36.408Z,62.40
2019-03-20T09:40:35.386Z,61.90
2019-03-20T09:41:35.399Z,60.67
2019-03-20T09:42:35.367Z,61.79
2019-03-20T09:43:35.439Z,61.08
2019-03-20T09:44:35.343Z,62.37
2019-03-20T09:45:35.338Z,61.66
2019-03-20T09:46:35.324Z,61.46
2019-03-20T09:47:35.298Z,61.76
2019-03-20T09:48:35.330Z,62.27
2019-03-20T09:49:35.282Z,61.32
2019-03-20T09:50:35.279Z,61.73
2019-03-20T09:51:35.263Z,60.82
2019-03-20T09:52:35.265Z,59.80
2019-03-20T09:53:35.281Z,60.61
2019-03-20T09:54:35.227Z,60.41
2019-03-20T09:55:35.210Z,61.30
2019-03-20T09:56:35.214Z,62.11
2019-03-20T09:57:35.203Z,61.50
2019-03-20T09:58:35.213Z,60.69
2019-03-20T09:59:35.194Z,60.05
2019-03-20T10:00:35.199Z,60.55
2019-03-20T10:01:35.167Z,60.45
2019-03-20T10:02:35.153Z,60.35
2019-03-20T10:03:35.165Z,59.53
2019-03-20T10:04:35.169Z,59.12
2019-03-20T10:05:35.104Z,59.03
2019-03-20T10:06:35.098Z,59.03
2019-03-20T10:07:35.088Z,60.73
2019-03-20T10:08:35.081Z,60.83
2019-03-20T10:09:35.122Z,60.66
2019-03-20T10:10:35.090Z,59.74
2019-03-20T10:11:35.050Z,60.05
2019-03-20T10:12:35.038Z,60.83
2019-03-20T10:13:35.023Z,60.50
2019-03-20T10:14:35.038Z,60.09
2019-03-20T10:15:35.009Z,60.70
2019-03-20T10:16:34.994Z,59.28
2019-03-20T10:17:34.973Z,59.89
2019-03-20T10:18:34.963Z,59.68
2019-03-20T10:19:34.972Z,58.76
2019-03-20T10:20:34.947Z,59.58
2019-03-20T10:21:34.933Z,59.78
2019-03-20T10:22:34.919Z,59.28
2019-03-20T10:23:34.913Z,61.21
2019-03-20T10:24:34.938Z,60.30
2019-03-20T10:25:44.149Z,60.39
2019-03-20T10:26:35.916Z,60.19
2019-03-20T10:27:34.873Z,60.39
2019-03-20T10:28:34.848Z,62.13
2019-03-20T10:29:34.849Z,60.50
2019-03-20T10:30:35.032Z,61.21
2019-03-20T10:31:34.820Z,60.37
2019-03-20T10:32:34.809Z,60.30
2019-03-20T10:33:34.796Z,61.21
2019-03-20T10:34:39.387Z,61.29
2019-03-20T10:35:34.829Z,62.61
2019-03-20T10:36:34.777Z,60.47
2019-03-20T10:37:34.756Z,59.55
2019-03-20T10:38:34.735Z,60.57
2019-03-20T10:39:34.735Z,60.68
2019-03-20T10:40:34.755Z,61.18
2019-03-20T10:41:34.709Z,61.97
2019-03-20T10:42:34.732Z,59.55
2019-03-20T10:43:34.687Z,60.77
2019-03-20T10:44:34.671Z,60.95
2019-03-20T10:45:34.710Z,61.15
2019-03-20T10:46:34.668Z,60.64
2019-03-20T10:47:34.668Z,58.89
2019-03-20T10:48:34.629Z,59.80
2019-03-20T10:49:34.635Z,58.51
2019-03-20T10:50:34.651Z,59.22
2019-03-20T10:51:34.610Z,59.42
2019-03-20T10:52:34.586Z,58.40
2019-03-20T10:53:34.579Z,58.71
2019-03-20T10:54:34.568Z,59.12
2019-03-20T10:55:34.558Z,59.70
2019-03-20T10:56:34.589Z,58.78
2019-03-20T10:57:34.534Z,58.48
2019-03-20T10:58:34.513Z,57.23
2019-03-20T10:59:34.566Z,58.76
2019-03-20T11:00:34.520Z,58.25
2019-03-20T11:01:42.474Z,57.95
2019-03-20T11:02:35.496Z,58.78
2019-03-20T11:03:34.477Z,58.69
2019-03-20T11:04:34.474Z,58.38
2019-03-20T11:05:34.450Z,57.87
2019-03-20T11:06:34.456Z,58.38
2019-03-20T11:07:34.421Z,58.58
2019-03-20T11:08:34.412Z,58.69
2019-03-20T11:09:34.400Z,58.69
2019-03-20T11:10:34.382Z,57.77
2019-03-20T11:11:34.408Z,58.58
2019-03-20T11:12:34.366Z,59.19
2019-03-20T11:13:34.364Z,58.56
2019-03-20T11:14:34.337Z,59.77
2019-03-20T11:15:34.341Z,58.89
2019-03-20T11:16:34.344Z,58.17
2019-03-20T11:17:34.331Z,58.65
2019-03-20T11:18:34.295Z,58.28
2019-03-20T11:19:34.285Z,58.58
2019-03-20T11:20:34.273Z,58.89
2019-03-20T11:21:34.307Z,58.38
2019-03-20T11:22:34.245Z,58.28
2019-03-20T11:23:34.250Z,58.89
2019-03-20T11:24:34.236Z,58.89
2019-03-20T11:25:34.235Z,59.57
2019-03-20T11:26:34.229Z,58.65
2019-03-20T11:27:34.208Z,58.22
2019-03-20T11:28:34.214Z,57.10
2019-03-20T11:29:34.197Z,57.71
2019-03-20T11:30:34.173Z,56.73
2019-03-20T11:31:34.171Z,56.82
2019-03-20T11:32:34.161Z,57.84
2019-03-20T11:33:34.145Z,56.82
2019-03-20T11:34:34.118Z,57.03
2019-03-20T11:35:34.136Z,57.13
2019-03-20T11:36:34.100Z,57.95
2019-03-20T11:37:34.127Z,57.71
2019-03-20T11:38:34.117Z,56.39
2019-03-20T11:39:34.071Z,56.52
2019-03-20T11:40:34.102Z,56.62
2019-03-20T11:41:34.046Z,58.04
2019-03-20T11:42:34.060Z,56.95
2019-03-20T11:43:34.034Z,57.06
2019-03-20T11:44:34.011Z,57.77
2019-03-20T11:45:34.015Z,58.17
2019-03-20T11:46:33.992Z,58.65
2019-03-20T11:47:34.006Z,57.03
2019-03-20T11:48:33.984Z,58.25
2019-03-20T11:49:33.959Z,56.73
2019-03-20T11:50:33.945Z,56.82
2019-03-20T11:51:33.942Z,58.28
2019-03-20T11:52:33.947Z,57.74
2019-03-20T11:53:33.914Z,57.64
2019-03-20T11:54:33.905Z,58.15
2019-03-20T11:55:33.898Z,58.02
2019-03-20T11:56:33.877Z,56.80
2019-03-20T11:57:33.904Z,57.51
2019-03-20T11:58:33.856Z,57.41
2019-03-20T11:59:33.859Z,57.41
2019-03-20T12:00:33.829Z,58.25
2019-03-20T12:01:33.904Z,57.26
2019-03-20T12:02:33.839Z,58.58
2019-03-20T12:04:34.920Z,59.39
2019-03-20T12:06:34.895Z,59.39
2019-03-20T12:07:35.322Z,59.60
2019-03-20T12:08:33.781Z,58.28
2019-03-20T12:10:34.856Z,58.38
2019-03-20T12:12:34.835Z,59.91
2019-03-20T12:13:35.561Z,59.30
2019-03-20T12:14:33.694Z,60.31
2019-03-20T12:16:34.789Z,59.83
2019-03-20T12:17:35.670Z,58.92
2019-03-20T12:18:33.661Z,58.71
2019-03-20T12:19:44.660Z,60.54
2019-03-20T12:20:34.610Z,60.14
2019-03-20T12:21:35.802Z,59.19
2019-03-20T12:22:33.603Z,59.01
2019-03-20T12:23:35.840Z,58.38
2019-03-20T12:24:33.587Z,58.20
2019-03-20T12:25:35.818Z,58.30
2019-03-20T12:26:33.569Z,58.71
2019-03-20T12:27:35.950Z,59.73
2019-03-20T12:28:33.590Z,60.03
2019-03-20T12:29:36.075Z,59.66
2019-03-20T12:30:33.508Z,59.45
2019-03-20T12:32:34.632Z,59.55
2019-03-20T12:33:36.234Z,60.30
2019-03-20T12:34:33.461Z,60.68
2019-03-20T12:36:34.569Z,59.25
2019-03-20T12:38:34.583Z,59.83
2019-03-20T12:39:38.308Z,59.83
2019-03-20T12:40:33.400Z,60.44
2019-03-20T12:42:34.512Z,58.61
2019-03-20T12:44:34.524Z,58.51
2019-03-20T12:46:41.329Z,59.30
2019-03-20T12:47:36.585Z,59.60
2019-03-20T12:48:33.321Z,59.80
2019-03-20T12:49:36.731Z,59.91
2019-03-20T12:50:33.284Z,58.51
2019-03-20T12:52:34.421Z,58.69
2019-03-20T12:54:34.426Z,58.07
2019-03-20T12:57:37.102Z,58.69
2019-03-20T12:58:33.344Z,58.28
2019-03-20T12:59:33.325Z,58.89
2019-03-20T13:00:37.244Z,57.06
2019-03-20T13:01:33.174Z,57.97
2019-03-20T13:02:37.149Z,58.38
2019-03-20T13:03:33.159Z,58.58
2019-03-20T13:05:33.163Z,58.38
2019-03-20T13:07:33.119Z,58.69
2019-03-20T13:09:33.118Z,59.39
2019-03-20T13:10:35.245Z,58.78